sensor_id;sensor_type;location;lat;lon;timestamp;P1;durP1;ratioP1;P2;durP2;ratioP2
36411;SDS011;22445;52.100;5.176;2022-08-11T00:01:18;3.78;;;2.38;;
36411;SDS011;22445;52.100;5.176;2022-08-11T00:03:59;3.10;;;2.80;;
36411;SDS011;22445;52.100;5.176;2022-08-11T00:08:54;4.03;;;2.85;;
36411;SDS011;22445;52.100;5.176;2022-08-11T00:11:21;3.83;;;2.65;;
36411;SDS011;22445;52.100;5.176;2022-08-11T00:13:58;3.72;;;2.80;;
36411;SDS011;22445;52.100;5.176;2022-08-11T00:16:26;4.43;;;2.78;;
36411;SDS011;22445;52.100;5.176;2022-08-11T00:18:53;3.88;;;3.08;;
36411;SDS011;22445;52.100;5.176;2022-08-11T00:21:21;6.22;;;2.70;;
36411;SDS011;22445;52.100;5.176;2022-08-11T00:23:52;3.42;;;2.58;;
36411;SDS011;22445;52.100;5.176;2022-08-11T00:26:19;3.20;;;2.42;;
36411;SDS011;22445;52.100;5.176;2022-08-11T00:28:47;3.35;;;2.70;;
36411;SDS011;22445;52.100;5.176;2022-08-11T00:31:31;4.35;;;3.00;;
36411;SDS011;22445;52.100;5.176;2022-08-11T00:34:00;3.13;;;2.78;;
36411;SDS011;22445;52.100;5.176;2022-08-11T00:36:36;4.00;;;2.53;;
36411;SDS011;22445;52.100;5.176;2022-08-11T00:39:13;3.10;;;2.78;;
36411;SDS011;22445;52.100;5.176;2022-08-11T00:41:46;4.05;;;2.45;;
36411;SDS011;22445;52.100;5.176;2022-08-11T01:45:58;3.55;;;2.92;;
36411;SDS011;22445;52.100;5.176;2022-08-11T01:59:39;7.78;;;3.97;;
36411;SDS011;22445;52.100;5.176;2022-08-11T02:11:17;6.95;;;4.38;;
36411;SDS011;22445;52.100;5.176;2022-08-11T02:20:13;5.40;;;4.10;;
36411;SDS011;22445;52.100;5.176;2022-08-11T02:26:03;4.45;;;3.70;;
36411;SDS011;22445;52.100;5.176;2022-08-11T02:31:12;4.40;;;3.67;;
36411;SDS011;22445;52.100;5.176;2022-08-11T02:34:20;4.82;;;3.78;;
36411;SDS011;22445;52.100;5.176;2022-08-11T02:37:24;4.50;;;3.83;;
36411;SDS011;22445;52.100;5.176;2022-08-11T02:45:28;4.53;;;4.05;;
36411;SDS011;22445;52.100;5.176;2022-08-11T02:51:11;4.07;;;3.70;;
36411;SDS011;22445;52.100;5.176;2022-08-11T02:57:03;5.05;;;4.05;;
36411;SDS011;22445;52.100;5.176;2022-08-11T03:13:41;6.00;;;4.82;;
36411;SDS011;22445;52.100;5.176;2022-08-11T03:16:57;5.07;;;4.57;;
36411;SDS011;22445;52.100;5.176;2022-08-11T03:22:22;4.93;;;4.43;;
36411;SDS011;22445;52.100;5.176;2022-08-11T03:24:59;5.65;;;4.65;;
36411;SDS011;22445;52.100;5.176;2022-08-11T03:30:09;7.97;;;5.43;;
36411;SDS011;22445;52.100;5.176;2022-08-11T03:35:53;7.05;;;4.80;;
36411;SDS011;22445;52.100;5.176;2022-08-11T03:44:19;6.85;;;5.20;;
36411;SDS011;22445;52.100;5.176;2022-08-11T03:47:22;5.68;;;5.18;;
36411;SDS011;22445;52.100;5.176;2022-08-11T03:52:36;6.55;;;4.88;;
36411;SDS011;22445;52.100;5.176;2022-08-11T03:58:47;5.13;;;4.63;;
36411;SDS011;22445;52.100;5.176;2022-08-11T04:07:46;6.43;;;5.57;;
36411;SDS011;22445;52.100;5.176;2022-08-11T04:13:25;6.95;;;6.25;;
36411;SDS011;22445;52.100;5.176;2022-08-11T04:21:56;7.55;;;5.80;;
36411;SDS011;22445;52.100;5.176;2022-08-11T04:33:29;7.10;;;5.93;;
36411;SDS011;22445;52.100;5.176;2022-08-11T04:55:20;7.72;;;6.78;;
36411;SDS011;22445;52.100;5.176;2022-08-11T05:07:58;6.80;;;6.03;;
36411;SDS011;22445;52.100;5.176;2022-08-11T05:13:28;6.65;;;5.35;;
36411;SDS011;22445;52.100;5.176;2022-08-11T05:16:40;6.50;;;5.13;;
36411;SDS011;22445;52.100;5.176;2022-08-11T05:19:25;5.50;;;4.97;;
36411;SDS011;22445;52.100;5.176;2022-08-11T05:22:10;7.38;;;5.53;;
36411;SDS011;22445;52.100;5.176;2022-08-11T05:25:05;5.95;;;5.28;;
36411;SDS011;22445;52.100;5.176;2022-08-11T05:27:56;5.20;;;4.72;;
36411;SDS011;22445;52.100;5.176;2022-08-11T05:30:44;5.38;;;4.50;;
36411;SDS011;22445;52.100;5.176;2022-08-11T05:33:34;7.40;;;4.90;;
36411;SDS011;22445;52.100;5.176;2022-08-11T05:36:26;6.18;;;4.30;;
36411;SDS011;22445;52.100;5.176;2022-08-11T05:39:00;5.15;;;4.45;;
36411;SDS011;22445;52.100;5.176;2022-08-11T05:41:48;5.75;;;4.00;;
36411;SDS011;22445;52.100;5.176;2022-08-11T05:44:34;5.10;;;4.00;;
36411;SDS011;22445;52.100;5.176;2022-08-11T05:47:24;5.00;;;3.90;;
36411;SDS011;22445;52.100;5.176;2022-08-11T05:50:12;5.30;;;3.80;;
36411;SDS011;22445;52.100;5.176;2022-08-11T05:53:00;4.50;;;4.10;;
36411;SDS011;22445;52.100;5.176;2022-08-11T05:55:47;4.72;;;3.58;;
36411;SDS011;22445;52.100;5.176;2022-08-11T05:58:34;4.47;;;3.97;;
36411;SDS011;22445;52.100;5.176;2022-08-11T06:01:03;5.55;;;3.45;;
36411;SDS011;22445;52.100;5.176;2022-08-11T06:03:31;9.82;;;4.88;;
36411;SDS011;22445;52.100;5.176;2022-08-11T06:06:19;6.03;;;3.05;;
36411;SDS011;22445;52.100;5.176;2022-08-11T06:08:47;5.28;;;3.38;;
36411;SDS011;22445;52.100;5.176;2022-08-11T06:11:15;6.43;;;3.75;;
36411;SDS011;22445;52.100;5.176;2022-08-11T06:13:43;3.55;;;3.10;;
36411;SDS011;22445;52.100;5.176;2022-08-11T06:16:08;3.72;;;3.42;;
36411;SDS011;22445;52.100;5.176;2022-08-11T06:18:37;3.38;;;3.08;;
36411;SDS011;22445;52.100;5.176;2022-08-11T06:21:07;2.97;;;2.72;;
36411;SDS011;22445;52.100;5.176;2022-08-11T06:23:33;3.63;;;3.20;;
36411;SDS011;22445;52.100;5.176;2022-08-11T06:26:00;8.07;;;2.90;;
36411;SDS011;22445;52.100;5.176;2022-08-11T06:28:28;5.25;;;3.25;;
36411;SDS011;22445;52.100;5.176;2022-08-11T06:30:55;3.63;;;2.72;;
36411;SDS011;22445;52.100;5.176;2022-08-11T06:36:30;3.17;;;2.70;;
36411;SDS011;22445;52.100;5.176;2022-08-11T06:42:07;3.05;;;2.22;;
36411;SDS011;22445;52.100;5.176;2022-08-11T06:44:39;3.50;;;2.42;;
36411;SDS011;22445;52.100;5.176;2022-08-11T06:47:08;2.97;;;2.67;;
36411;SDS011;22445;52.100;5.176;2022-08-11T06:49:39;2.67;;;2.08;;
36411;SDS011;22445;52.100;5.176;2022-08-11T06:52:29;2.83;;;2.05;;
36411;SDS011;22445;52.100;5.176;2022-08-11T06:54:58;5.88;;;1.95;;
36411;SDS011;22445;52.100;5.176;2022-08-11T06:58:00;4.75;;;2.40;;
36411;SDS011;22445;52.100;5.176;2022-08-11T07:00:47;3.08;;;1.88;;
36411;SDS011;22445;52.100;5.176;2022-08-11T07:03:16;3.50;;;2.20;;
36411;SDS011;22445;52.100;5.176;2022-08-11T07:05:48;15.00;;;2.88;;
36411;SDS011;22445;52.100;5.176;2022-08-11T07:14:13;2.72;;;1.73;;
36411;SDS011;22445;52.100;5.176;2022-08-11T07:17:02;3.60;;;1.92;;
36411;SDS011;22445;52.100;5.176;2022-08-11T07:19:32;3.22;;;1.80;;
36411;SDS011;22445;52.100;5.176;2022-08-11T07:22:18;3.15;;;1.80;;
36411;SDS011;22445;52.100;5.176;2022-08-11T07:25:13;2.50;;;1.52;;
36411;SDS011;22445;52.100;5.176;2022-08-11T07:28:02;4.07;;;1.70;;
36411;SDS011;22445;52.100;5.176;2022-08-11T07:30:49;4.13;;;1.40;;
36411;SDS011;22445;52.100;5.176;2022-08-11T07:33:22;4.82;;;1.30;;
36411;SDS011;22445;52.100;5.176;2022-08-11T07:35:55;2.58;;;1.58;;
36411;SDS011;22445;52.100;5.176;2022-08-11T07:38:23;2.05;;;1.33;;
36411;SDS011;22445;52.100;5.176;2022-08-11T07:41:11;2.40;;;1.33;;
36411;SDS011;22445;52.100;5.176;2022-08-11T07:43:42;2.58;;;1.70;;
36411;SDS011;22445;52.100;5.176;2022-08-11T07:46:13;4.57;;;1.63;;
36411;SDS011;22445;52.100;5.176;2022-08-11T07:48:57;3.88;;;1.60;;
36411;SDS011;22445;52.100;5.176;2022-08-11T07:51:42;2.40;;;1.80;;
36411;SDS011;22445;52.100;5.176;2022-08-11T07:54:26;3.03;;;1.75;;
36411;SDS011;22445;52.100;5.176;2022-08-11T07:56:53;5.93;;;1.50;;
36411;SDS011;22445;52.100;5.176;2022-08-11T07:59:20;4.65;;;1.70;;
36411;SDS011;22445;52.100;5.176;2022-08-11T08:02:05;4.32;;;1.60;;
36411;SDS011;22445;52.100;5.176;2022-08-11T08:04:52;3.05;;;1.70;;
36411;SDS011;22445;52.100;5.176;2022-08-11T08:07:37;4.30;;;1.45;;
36411;SDS011;22445;52.100;5.176;2022-08-11T08:10:22;2.38;;;1.25;;
36411;SDS011;22445;52.100;5.176;2022-08-11T08:13:06;2.00;;;1.33;;
36411;SDS011;22445;52.100;5.176;2022-08-11T08:15:52;2.42;;;1.50;;
36411;SDS011;22445;52.100;5.176;2022-08-11T08:18:37;1.42;;;1.20;;
36411;SDS011;22445;52.100;5.176;2022-08-11T08:21:04;2.60;;;1.70;;
36411;SDS011;22445;52.100;5.176;2022-08-11T08:23:37;2.60;;;1.50;;
36411;SDS011;22445;52.100;5.176;2022-08-11T08:26:07;2.22;;;1.80;;
36411;SDS011;22445;52.100;5.176;2022-08-11T08:28:56;2.30;;;1.27;;
36411;SDS011;22445;52.100;5.176;2022-08-11T08:31:43;3.25;;;1.33;;
36411;SDS011;22445;52.100;5.176;2022-08-11T08:34:13;2.28;;;1.30;;
36411;SDS011;22445;52.100;5.176;2022-08-11T08:36:44;4.70;;;1.65;;
36411;SDS011;22445;52.100;5.176;2022-08-11T08:39:12;4.65;;;1.60;;
36411;SDS011;22445;52.100;5.176;2022-08-11T08:41:39;2.67;;;1.30;;
36411;SDS011;22445;52.100;5.176;2022-08-11T08:44:09;1.80;;;1.50;;
36411;SDS011;22445;52.100;5.176;2022-08-11T08:46:41;3.22;;;1.40;;
36411;SDS011;22445;52.100;5.176;2022-08-11T08:49:13;2.22;;;1.55;;
36411;SDS011;22445;52.100;5.176;2022-08-11T08:51:40;3.72;;;1.33;;
36411;SDS011;22445;52.100;5.176;2022-08-11T08:54:18;3.28;;;1.45;;
36411;SDS011;22445;52.100;5.176;2022-08-11T08:56:46;6.35;;;1.33;;
36411;SDS011;22445;52.100;5.176;2022-08-11T08:59:13;4.20;;;1.60;;
36411;SDS011;22445;52.100;5.176;2022-08-11T09:01:52;2.83;;;1.13;;
36411;SDS011;22445;52.100;5.176;2022-08-11T09:04:23;3.05;;;1.73;;
36411;SDS011;22445;52.100;5.176;2022-08-11T09:06:50;2.17;;;1.48;;
36411;SDS011;22445;52.100;5.176;2022-08-11T09:09:17;3.85;;;1.67;;
36411;SDS011;22445;52.100;5.176;2022-08-11T09:11:46;1.92;;;1.45;;
36411;SDS011;22445;52.100;5.176;2022-08-11T09:14:34;1.77;;;1.40;;
36411;SDS011;22445;52.100;5.176;2022-08-11T09:17:20;2.38;;;1.60;;
36411;SDS011;22445;52.100;5.176;2022-08-11T09:19:46;2.88;;;1.90;;
36411;SDS011;22445;52.100;5.176;2022-08-11T09:22:24;2.08;;;1.65;;
36411;SDS011;22445;52.100;5.176;2022-08-11T09:25:11;2.58;;;1.60;;
36411;SDS011;22445;52.100;5.176;2022-08-11T09:27:57;4.18;;;1.52;;
36411;SDS011;22445;52.100;5.176;2022-08-11T09:30:24;2.03;;;1.80;;
36411;SDS011;22445;52.100;5.176;2022-08-11T09:32:52;2.25;;;1.27;;
36411;SDS011;22445;52.100;5.176;2022-08-11T09:35:24;8.02;;;1.58;;
36411;SDS011;22445;52.100;5.176;2022-08-11T09:37:55;1.40;;;1.30;;
36411;SDS011;22445;52.100;5.176;2022-08-11T09:40:42;1.88;;;1.60;;
36411;SDS011;22445;52.100;5.176;2022-08-11T09:43:12;1.88;;;1.40;;
36411;SDS011;22445;52.100;5.176;2022-08-11T09:46:00;3.28;;;1.52;;
36411;SDS011;22445;52.100;5.176;2022-08-11T09:48:28;2.47;;;1.60;;
36411;SDS011;22445;52.100;5.176;2022-08-11T09:50:56;4.05;;;1.30;;
36411;SDS011;22445;52.100;5.176;2022-08-11T09:53:26;3.25;;;1.55;;
36411;SDS011;22445;52.100;5.176;2022-08-11T09:55:55;4.13;;;1.75;;
36411;SDS011;22445;52.100;5.176;2022-08-11T09:58:21;4.10;;;1.40;;
36411;SDS011;22445;52.100;5.176;2022-08-11T10:00:50;5.82;;;1.63;;
36411;SDS011;22445;52.100;5.176;2022-08-11T10:06:02;5.70;;;1.83;;
36411;SDS011;22445;52.100;5.176;2022-08-11T10:08:49;3.88;;;1.70;;
36411;SDS011;22445;52.100;5.176;2022-08-11T10:11:18;3.88;;;1.17;;
36411;SDS011;22445;52.100;5.176;2022-08-11T10:13:46;4.25;;;1.40;;
36411;SDS011;22445;52.100;5.176;2022-08-11T10:16:34;2.35;;;1.35;;
36411;SDS011;22445;52.100;5.176;2022-08-11T10:19:02;2.67;;;1.50;;
36411;SDS011;22445;52.100;5.176;2022-08-11T10:21:45;3.03;;;1.30;;
36411;SDS011;22445;52.100;5.176;2022-08-11T10:24:31;5.60;;;1.73;;
36411;SDS011;22445;52.100;5.176;2022-08-11T10:27:16;2.75;;;1.30;;
36411;SDS011;22445;52.100;5.176;2022-08-11T10:29:43;4.47;;;1.20;;
36411;SDS011;22445;52.100;5.176;2022-08-11T10:32:29;2.55;;;1.20;;
36411;SDS011;22445;52.100;5.176;2022-08-11T10:35:15;3.17;;;1.40;;
36411;SDS011;22445;52.100;5.176;2022-08-11T10:37:42;2.67;;;1.48;;
36411;SDS011;22445;52.100;5.176;2022-08-11T10:40:09;5.18;;;1.25;;
36411;SDS011;22445;52.100;5.176;2022-08-11T10:42:40;3.10;;;1.10;;
36411;SDS011;22445;52.100;5.176;2022-08-11T10:45:29;2.83;;;1.15;;
36411;SDS011;22445;52.100;5.176;2022-08-11T10:48:15;4.15;;;1.10;;
36411;SDS011;22445;52.100;5.176;2022-08-11T10:50:45;3.15;;;1.33;;
36411;SDS011;22445;52.100;5.176;2022-08-11T10:53:30;1.85;;;1.10;;
36411;SDS011;22445;52.100;5.176;2022-08-11T10:56:15;2.05;;;1.30;;
36411;SDS011;22445;52.100;5.176;2022-08-11T10:58:59;2.13;;;1.15;;
36411;SDS011;22445;52.100;5.176;2022-08-11T11:01:27;4.18;;;1.75;;
36411;SDS011;22445;52.100;5.176;2022-08-11T11:04:07;1.33;;;1.23;;
36411;SDS011;22445;52.100;5.176;2022-08-11T11:09:32;2.08;;;1.23;;
36411;SDS011;22445;52.100;5.176;2022-08-11T11:12:09;5.18;;;1.50;;
36411;SDS011;22445;52.100;5.176;2022-08-11T11:15:07;5.78;;;1.63;;
36411;SDS011;22445;52.100;5.176;2022-08-11T11:18:11;3.13;;;1.42;;
36411;SDS011;22445;52.100;5.176;2022-08-11T11:20:42;5.63;;;2.13;;
36411;SDS011;22445;52.100;5.176;2022-08-11T11:29:14;2.58;;;1.42;;
36411;SDS011;22445;52.100;5.176;2022-08-11T11:37:22;3.33;;;1.63;;
36411;SDS011;22445;52.100;5.176;2022-08-11T11:39:53;12.60;;;2.40;;
36411;SDS011;22445;52.100;5.176;2022-08-11T11:42:22;4.72;;;1.60;;
36411;SDS011;22445;52.100;5.176;2022-08-11T11:44:48;3.72;;;1.50;;
36411;SDS011;22445;52.100;5.176;2022-08-11T11:47:14;3.60;;;1.50;;
36411;SDS011;22445;52.100;5.176;2022-08-11T11:49:42;3.83;;;1.38;;
36411;SDS011;22445;52.100;5.176;2022-08-11T11:52:12;2.83;;;1.42;;
36411;SDS011;22445;52.100;5.176;2022-08-11T11:54:42;6.22;;;1.50;;
36411;SDS011;22445;52.100;5.176;2022-08-11T11:57:10;2.38;;;1.35;;
36411;SDS011;22445;52.100;5.176;2022-08-11T11:59:54;4.07;;;1.60;;
36411;SDS011;22445;52.100;5.176;2022-08-11T12:02:40;3.30;;;1.30;;
36411;SDS011;22445;52.100;5.176;2022-08-11T12:05:07;2.72;;;1.20;;
36411;SDS011;22445;52.100;5.176;2022-08-11T12:07:36;1.70;;;1.35;;
36411;SDS011;22445;52.100;5.176;2022-08-11T12:10:20;1.20;;;1.10;;
36411;SDS011;22445;52.100;5.176;2022-08-11T12:12:47;3.60;;;1.33;;
36411;SDS011;22445;52.100;5.176;2022-08-11T12:15:33;2.25;;;1.50;;
36411;SDS011;22445;52.100;5.176;2022-08-11T12:17:59;2.88;;;1.30;;
36411;SDS011;22445;52.100;5.176;2022-08-11T12:20:25;1.65;;;1.30;;
36411;SDS011;22445;52.100;5.176;2022-08-11T12:22:53;4.18;;;1.50;;
36411;SDS011;22445;52.100;5.176;2022-08-11T12:25:39;1.95;;;1.58;;
36411;SDS011;22445;52.100;5.176;2022-08-11T12:28:26;3.65;;;1.40;;
36411;SDS011;22445;52.100;5.176;2022-08-11T12:30:52;3.63;;;1.30;;
36411;SDS011;22445;52.100;5.176;2022-08-11T12:33:20;1.83;;;1.60;;
36411;SDS011;22445;52.100;5.176;2022-08-11T12:35:47;2.75;;;1.40;;
36411;SDS011;22445;52.100;5.176;2022-08-11T12:38:20;3.85;;;1.50;;
36411;SDS011;22445;52.100;5.176;2022-08-11T12:40:49;3.20;;;1.33;;
36411;SDS011;22445;52.100;5.176;2022-08-11T12:43:35;2.55;;;1.30;;
36411;SDS011;22445;52.100;5.176;2022-08-11T12:48:51;3.13;;;1.40;;
36411;SDS011;22445;52.100;5.176;2022-08-11T12:51:46;3.72;;;1.55;;
36411;SDS011;22445;52.100;5.176;2022-08-11T12:57:36;2.90;;;1.20;;
36411;SDS011;22445;52.100;5.176;2022-08-11T13:00:23;2.13;;;1.10;;
36411;SDS011;22445;52.100;5.176;2022-08-11T13:03:10;3.90;;;1.42;;
36411;SDS011;22445;52.100;5.176;2022-08-11T13:05:57;1.50;;;1.08;;
36411;SDS011;22445;52.100;5.176;2022-08-11T13:08:24;1.65;;;1.30;;
36411;SDS011;22445;52.100;5.176;2022-08-11T13:10:52;4.13;;;1.35;;
36411;SDS011;22445;52.100;5.176;2022-08-11T13:13:39;5.00;;;1.60;;
36411;SDS011;22445;52.100;5.176;2022-08-11T13:16:07;1.63;;;1.30;;
36411;SDS011;22445;52.100;5.176;2022-08-11T13:18:34;1.63;;;1.08;;
36411;SDS011;22445;52.100;5.176;2022-08-11T13:21:03;3.10;;;1.48;;
36411;SDS011;22445;52.100;5.176;2022-08-11T13:23:29;1.40;;;1.00;;
36411;SDS011;22445;52.100;5.176;2022-08-11T13:25:56;2.47;;;1.20;;
36411;SDS011;22445;52.100;5.176;2022-08-11T13:28:23;3.63;;;1.30;;
36411;SDS011;22445;52.100;5.176;2022-08-11T13:30:50;2.05;;;1.42;;
36411;SDS011;22445;52.100;5.176;2022-08-11T13:33:39;1.92;;;1.40;;
36411;SDS011;22445;52.100;5.176;2022-08-11T13:36:06;1.77;;;1.27;;
36411;SDS011;22445;52.100;5.176;2022-08-11T13:38:33;2.63;;;1.00;;
36411;SDS011;22445;52.100;5.176;2022-08-11T13:41:00;3.38;;;1.20;;
36411;SDS011;22445;52.100;5.176;2022-08-11T13:43:27;1.75;;;1.30;;
36411;SDS011;22445;52.100;5.176;2022-08-11T13:45:55;1.80;;;1.20;;
36411;SDS011;22445;52.100;5.176;2022-08-11T13:48:42;2.85;;;1.55;;
36411;SDS011;22445;52.100;5.176;2022-08-11T13:51:09;8.30;;;1.30;;
36411;SDS011;22445;52.100;5.176;2022-08-11T13:53:59;1.77;;;1.25;;
36411;SDS011;22445;52.100;5.176;2022-08-11T13:56:25;1.70;;;1.33;;
36411;SDS011;22445;52.100;5.176;2022-08-11T13:58:53;2.33;;;1.55;;
36411;SDS011;22445;52.100;5.176;2022-08-11T14:01:22;2.35;;;1.45;;
36411;SDS011;22445;52.100;5.176;2022-08-11T14:03:49;1.52;;;1.10;;
36411;SDS011;22445;52.100;5.176;2022-08-11T14:06:16;1.65;;;1.38;;
36411;SDS011;22445;52.100;5.176;2022-08-11T14:08:44;2.92;;;1.25;;
36411;SDS011;22445;52.100;5.176;2022-08-11T14:11:09;3.97;;;1.58;;
36411;SDS011;22445;52.100;5.176;2022-08-11T14:13:53;1.73;;;1.20;;
36411;SDS011;22445;52.100;5.176;2022-08-11T14:16:27;1.73;;;1.20;;
36411;SDS011;22445;52.100;5.176;2022-08-11T14:18:56;1.83;;;1.10;;
36411;SDS011;22445;52.100;5.176;2022-08-11T14:21:26;3.30;;;1.90;;
36411;SDS011;22445;52.100;5.176;2022-08-11T14:24:13;2.30;;;1.23;;
36411;SDS011;22445;52.100;5.176;2022-08-11T14:26:42;2.00;;;1.27;;
36411;SDS011;22445;52.100;5.176;2022-08-11T14:31:44;1.20;;;1.10;;
36411;SDS011;22445;52.100;5.176;2022-08-11T14:34:13;2.25;;;0.88;;
36411;SDS011;22445;52.100;5.176;2022-08-11T14:36:43;3.22;;;1.00;;
36411;SDS011;22445;52.100;5.176;2022-08-11T14:39:14;1.38;;;1.20;;
36411;SDS011;22445;52.100;5.176;2022-08-11T14:41:45;2.30;;;1.15;;
36411;SDS011;22445;52.100;5.176;2022-08-11T14:44:30;1.50;;;1.40;;
36411;SDS011;22445;52.100;5.176;2022-08-11T14:47:16;1.83;;;1.35;;
36411;SDS011;22445;52.100;5.176;2022-08-11T14:49:43;1.70;;;1.10;;
36411;SDS011;22445;52.100;5.176;2022-08-11T14:52:11;4.60;;;1.40;;
36411;SDS011;22445;52.100;5.176;2022-08-11T14:54:44;3.85;;;1.40;;
36411;SDS011;22445;52.100;5.176;2022-08-11T14:57:32;1.48;;;1.27;;
36411;SDS011;22445;52.100;5.176;2022-08-11T15:00:02;3.45;;;1.20;;
36411;SDS011;22445;52.100;5.176;2022-08-11T15:02:32;1.25;;;1.17;;
36411;SDS011;22445;52.100;5.176;2022-08-11T15:05:23;3.30;;;1.00;;
36411;SDS011;22445;52.100;5.176;2022-08-11T15:07:52;6.55;;;1.35;;
36411;SDS011;22445;52.100;5.176;2022-08-11T15:10:18;1.23;;;1.13;;
36411;SDS011;22445;52.100;5.176;2022-08-11T15:12:46;2.70;;;1.20;;
36411;SDS011;22445;52.100;5.176;2022-08-11T15:15:13;3.20;;;1.38;;
36411;SDS011;22445;52.100;5.176;2022-08-11T15:18:00;3.65;;;1.17;;
36411;SDS011;22445;52.100;5.176;2022-08-11T15:20:30;1.58;;;1.00;;
36411;SDS011;22445;52.100;5.176;2022-08-11T15:23:16;2.13;;;1.13;;
36411;SDS011;22445;52.100;5.176;2022-08-11T15:26:07;2.15;;;1.00;;
36411;SDS011;22445;52.100;5.176;2022-08-11T15:28:43;1.67;;;1.00;;
36411;SDS011;22445;52.100;5.176;2022-08-11T15:31:31;2.55;;;1.00;;
36411;SDS011;22445;52.100;5.176;2022-08-11T15:34:18;1.55;;;1.17;;
36411;SDS011;22445;52.100;5.176;2022-08-11T15:37:08;2.33;;;1.00;;
36411;SDS011;22445;52.100;5.176;2022-08-11T15:40:15;2.50;;;1.23;;
36411;SDS011;22445;52.100;5.176;2022-08-11T15:45:47;1.90;;;1.17;;
36411;SDS011;22445;52.100;5.176;2022-08-11T15:51:03;2.90;;;1.10;;
36411;SDS011;22445;52.100;5.176;2022-08-11T15:53:42;1.38;;;1.00;;
36411;SDS011;22445;52.100;5.176;2022-08-11T15:56:12;1.35;;;1.20;;
36411;SDS011;22445;52.100;5.176;2022-08-11T15:58:43;2.78;;;1.52;;
36411;SDS011;22445;52.100;5.176;2022-08-11T16:01:30;1.70;;;1.00;;
36411;SDS011;22445;52.100;5.176;2022-08-11T16:04:19;1.00;;;1.00;;
36411;SDS011;22445;52.100;5.176;2022-08-11T16:12:02;5.00;;;1.25;;
36411;SDS011;22445;52.100;5.176;2022-08-11T16:14:32;2.55;;;1.30;;
36411;SDS011;22445;52.100;5.176;2022-08-11T16:17:18;3.05;;;1.17;;
36411;SDS011;22445;52.100;5.176;2022-08-11T16:19:47;1.92;;;1.25;;
36411;SDS011;22445;52.100;5.176;2022-08-11T16:22:17;7.35;;;1.40;;
36411;SDS011;22445;52.100;5.176;2022-08-11T16:24:57;2.42;;;1.30;;
36411;SDS011;22445;52.100;5.176;2022-08-11T16:27:23;1.75;;;1.13;;
36411;SDS011;22445;52.100;5.176;2022-08-11T16:29:50;3.22;;;1.40;;
36411;SDS011;22445;52.100;5.176;2022-08-11T16:32:21;1.60;;;1.40;;
36411;SDS011;22445;52.100;5.176;2022-08-11T16:34:49;3.00;;;1.20;;
36411;SDS011;22445;52.100;5.176;2022-08-11T16:37:36;1.95;;;1.33;;
36411;SDS011;22445;52.100;5.176;2022-08-11T16:40:21;2.63;;;1.00;;
36411;SDS011;22445;52.100;5.176;2022-08-11T16:42:49;3.22;;;1.13;;
36411;SDS011;22445;52.100;5.176;2022-08-11T16:45:35;2.33;;;1.23;;
36411;SDS011;22445;52.100;5.176;2022-08-11T16:48:23;3.90;;;1.30;;
36411;SDS011;22445;52.100;5.176;2022-08-11T16:50:52;3.28;;;1.30;;
36411;SDS011;22445;52.100;5.176;2022-08-11T16:53:20;1.17;;;1.08;;
36411;SDS011;22445;52.100;5.176;2022-08-11T16:55:47;2.58;;;1.10;;
36411;SDS011;22445;52.100;5.176;2022-08-11T16:58:15;2.67;;;1.10;;
36411;SDS011;22445;52.100;5.176;2022-08-11T17:01:00;3.25;;;1.38;;
36411;SDS011;22445;52.100;5.176;2022-08-11T17:03:27;1.95;;;1.40;;
36411;SDS011;22445;52.100;5.176;2022-08-11T17:06:13;1.77;;;1.17;;
36411;SDS011;22445;52.100;5.176;2022-08-11T17:09:03;3.25;;;1.02;;
36411;SDS011;22445;52.100;5.176;2022-08-11T17:11:51;2.33;;;1.20;;
36411;SDS011;22445;52.100;5.176;2022-08-11T17:14:57;5.45;;;1.30;;
36411;SDS011;22445;52.100;5.176;2022-08-11T17:17:27;2.53;;;1.40;;
36411;SDS011;22445;52.100;5.176;2022-08-11T17:19:57;2.60;;;1.48;;
36411;SDS011;22445;52.100;5.176;2022-08-11T17:22:28;3.92;;;1.40;;
36411;SDS011;22445;52.100;5.176;2022-08-11T17:25:14;2.47;;;1.30;;
36411;SDS011;22445;52.100;5.176;2022-08-11T17:27:42;2.03;;;1.33;;
36411;SDS011;22445;52.100;5.176;2022-08-11T17:30:07;1.90;;;1.30;;
36411;SDS011;22445;52.100;5.176;2022-08-11T17:32:41;3.30;;;1.25;;
36411;SDS011;22445;52.100;5.176;2022-08-11T17:35:29;1.65;;;1.00;;
36411;SDS011;22445;52.100;5.176;2022-08-11T17:38:05;2.22;;;1.30;;
36411;SDS011;22445;52.100;5.176;2022-08-11T17:40:35;4.40;;;1.17;;
36411;SDS011;22445;52.100;5.176;2022-08-11T17:43:03;1.20;;;1.10;;
36411;SDS011;22445;52.100;5.176;2022-08-11T17:45:51;2.33;;;1.02;;
36411;SDS011;22445;52.100;5.176;2022-08-11T17:48:39;3.20;;;1.08;;
36411;SDS011;22445;52.100;5.176;2022-08-11T17:51:11;3.22;;;1.02;;
36411;SDS011;22445;52.100;5.176;2022-08-11T17:53:59;1.08;;;0.85;;
36411;SDS011;22445;52.100;5.176;2022-08-11T17:56:44;2.88;;;1.25;;
36411;SDS011;22445;52.100;5.176;2022-08-11T17:59:30;3.72;;;1.42;;
36411;SDS011;22445;52.100;5.176;2022-08-11T18:02:18;4.00;;;1.20;;
36411;SDS011;22445;52.100;5.176;2022-08-11T18:05:04;1.08;;;0.90;;
36411;SDS011;22445;52.100;5.176;2022-08-11T18:07:30;2.35;;;1.20;;
36411;SDS011;22445;52.100;5.176;2022-08-11T18:10:14;1.08;;;0.90;;
36411;SDS011;22445;52.100;5.176;2022-08-11T18:12:59;2.00;;;1.00;;
36411;SDS011;22445;52.100;5.176;2022-08-11T18:15:43;2.15;;;1.00;;
36411;SDS011;22445;52.100;5.176;2022-08-11T18:18:29;2.15;;;0.98;;
36411;SDS011;22445;52.100;5.176;2022-08-11T18:21:15;2.83;;;1.10;;
36411;SDS011;22445;52.100;5.176;2022-08-11T18:24:03;1.73;;;1.02;;
36411;SDS011;22445;52.100;5.176;2022-08-11T18:26:51;3.05;;;0.98;;
36411;SDS011;22445;52.100;5.176;2022-08-11T18:29:39;1.08;;;0.98;;
36411;SDS011;22445;52.100;5.176;2022-08-11T18:32:26;1.55;;;0.90;;
36411;SDS011;22445;52.100;5.176;2022-08-11T18:35:12;2.45;;;0.98;;
36411;SDS011;22445;52.100;5.176;2022-08-11T18:37:58;2.70;;;1.02;;
36411;SDS011;22445;52.100;5.176;2022-08-11T18:40:44;1.88;;;1.20;;
36411;SDS011;22445;52.100;5.176;2022-08-11T18:43:30;3.72;;;1.10;;
36411;SDS011;22445;52.100;5.176;2022-08-11T18:46:15;1.45;;;0.80;;
36411;SDS011;22445;52.100;5.176;2022-08-11T18:49:01;1.30;;;0.80;;
36411;SDS011;22445;52.100;5.176;2022-08-11T18:51:49;0.90;;;0.80;;
36411;SDS011;22445;52.100;5.176;2022-08-11T18:54:36;3.30;;;0.70;;
36411;SDS011;22445;52.100;5.176;2022-08-11T18:57:21;0.77;;;0.75;;
36411;SDS011;22445;52.100;5.176;2022-08-11T19:00:05;1.00;;;0.80;;
36411;SDS011;22445;52.100;5.176;2022-08-11T19:02:50;1.67;;;1.00;;
36411;SDS011;22445;52.100;5.176;2022-08-11T19:05:34;2.78;;;0.80;;
36411;SDS011;22445;52.100;5.176;2022-08-11T19:08:20;1.45;;;0.82;;
36411;SDS011;22445;52.100;5.176;2022-08-11T19:11:07;1.00;;;0.90;;
36411;SDS011;22445;52.100;5.176;2022-08-11T19:13:53;1.92;;;0.75;;
36411;SDS011;22445;52.100;5.176;2022-08-11T19:16:39;3.00;;;0.82;;
36411;SDS011;22445;52.100;5.176;2022-08-11T19:19:25;1.45;;;0.88;;
36411;SDS011;22445;52.100;5.176;2022-08-11T19:22:12;1.00;;;0.90;;
36411;SDS011;22445;52.100;5.176;2022-08-11T19:24:58;3.70;;;0.93;;
36411;SDS011;22445;52.100;5.176;2022-08-11T19:27:44;2.08;;;1.02;;
36411;SDS011;22445;52.100;5.176;2022-08-11T19:30:30;1.13;;;0.90;;
36411;SDS011;22445;52.100;5.176;2022-08-11T19:33:16;1.85;;;1.00;;
36411;SDS011;22445;52.100;5.176;2022-08-11T19:36:02;2.50;;;0.80;;
36411;SDS011;22445;52.100;5.176;2022-08-11T19:38:48;3.33;;;1.38;;
36411;SDS011;22445;52.100;5.176;2022-08-11T19:41:33;2.55;;;0.85;;
36411;SDS011;22445;52.100;5.176;2022-08-11T19:44:20;1.17;;;0.88;;
36411;SDS011;22445;52.100;5.176;2022-08-11T19:47:06;1.30;;;0.85;;
36411;SDS011;22445;52.100;5.176;2022-08-11T19:49:52;1.42;;;1.00;;
36411;SDS011;22445;52.100;5.176;2022-08-11T19:52:38;1.75;;;1.20;;
36411;SDS011;22445;52.100;5.176;2022-08-11T19:55:25;1.42;;;1.10;;
36411;SDS011;22445;52.100;5.176;2022-08-11T19:58:09;2.83;;;1.10;;